sensor_id;sensor_type;location;lat;lon;timestamp;temperature;humidity
21744;DHT22;11034;48.556;9.342;2023-04-25T00:02:04;7.30;99.90
21744;DHT22;11034;48.556;9.342;2023-04-25T00:04:34;7.40;99.90
21744;DHT22;11034;48.556;9.342;2023-04-25T00:07:05;7.40;99.90
21744;DHT22;11034;48.556;9.342;2023-04-25T00:09:33;7.40;99.90
21744;DHT22;11034;48.556;9.342;2023-04-25T00:12:01;7.40;99.90
21744;DHT22;11034;48.556;9.342;2023-04-25T00:14:29;7.40;99.90
21744;DHT22;11034;48.556;9.342;2023-04-25T00:16:57;7.40;99.90
21744;DHT22;11034;48.556;9.342;2023-04-25T00:19:25;7.40;99.90
21744;DHT22;11034;48.556;9.342;2023-04-25T00:21:56;7.40;99.90
21744;DHT22;11034;48.556;9.342;2023-04-25T00:24:25;7.30;99.90
21744;DHT22;11034;48.556;9.342;2023-04-25T00:26:53;7.30;99.90
21744;DHT22;11034;48.556;9.342;2023-04-25T00:29:20;7.30;99.90
21744;DHT22;11034;48.556;9.342;2023-04-25T00:31:49;7.30;99.90
21744;DHT22;11034;48.556;9.342;2023-04-25T00:34:17;7.30;99.90
21744;DHT22;11034;48.556;9.342;2023-04-25T00:36:44;7.30;99.90
21744;DHT22;11034;48.556;9.342;2023-04-25T00:39:14;7.30;99.90
21744;DHT22;11034;48.556;9.342;2023-04-25T00:41:43;7.30;99.90
21744;DHT22;11034;48.556;9.342;2023-04-25T00:44:11;7.30;99.90
21744;DHT22;11034;48.556;9.342;2023-04-25T00:46:40;7.30;99.90
21744;DHT22;11034;48.556;9.342;2023-04-25T00:49:08;7.40;99.90
21744;DHT22;11034;48.556;9.342;2023-04-25T00:51:42;7.40;99.90
21744;DHT22;11034;48.556;9.342;2023-04-25T00:54:11;7.40;99.90
21744;DHT22;11034;48.556;9.342;2023-04-25T00:56:41;7.40;99.90
21744;DHT22;11034;48.556;9.342;2023-04-25T00:59:09;7.40;99.90
21744;DHT22;11034;48.556;9.342;2023-04-25T01:01:38;7.40;99.90
21744;DHT22;11034;48.556;9.342;2023-04-25T01:04:06;7.40;99.90
21744;DHT22;11034;48.556;9.342;2023-04-25T01:06:35;7.40;99.90
21744;DHT22;11034;48.556;9.342;2023-04-25T01:09:04;7.50;99.90
21744;DHT22;11034;48.556;9.342;2023-04-25T01:11:32;7.50;99.90
21744;DHT22;11034;48.556;9.342;2023-04-25T01:14:01;7.50;99.90
21744;DHT22;11034;48.556;9.342;2023-04-25T01:16:30;7.50;99.90
21744;DHT22;11034;48.556;9.342;2023-04-25T01:19:00;7.50;99.90
21744;DHT22;11034;48.556;9.342;2023-04-25T01:21:29;7.50;99.90
21744;DHT22;11034;48.556;9.342;2023-04-25T01:23:57;7.50;99.90
21744;DHT22;11034;48.556;9.342;2023-04-25T01:26:26;7.50;99.90
21744;DHT22;11034;48.556;9.342;2023-04-25T01:28:54;7.50;99.90
21744;DHT22;11034;48.556;9.342;2023-04-25T01:31:22;7.50;99.90
21744;DHT22;11034;48.556;9.342;2023-04-25T01:33:52;7.40;99.90
21744;DHT22;11034;48.556;9.342;2023-04-25T01:36:20;7.40;99.90
21744;DHT22;11034;48.556;9.342;2023-04-25T01:38:50;7.30;99.90
21744;DHT22;11034;48.556;9.342;2023-04-25T01:41:19;7.30;99.90
21744;DHT22;11034;48.556;9.342;2023-04-25T01:43:49;7.20;99.90
21744;DHT22;11034;48.556;9.342;2023-04-25T01:46:17;7.20;99.90
21744;DHT22;11034;48.556;9.342;2023-04-25T01:48:46;7.20;99.90
21744;DHT22;11034;48.556;9.342;2023-04-25T01:51:14;7.10;99.90
21744;DHT22;11034;48.556;9.342;2023-04-25T01:53:43;7.10;99.90
21744;DHT22;11034;48.556;9.342;2023-04-25T01:56:12;7.10;99.90
21744;DHT22;11034;48.556;9.342;2023-04-25T01:58:40;7.10;99.90
21744;DHT22;11034;48.556;9.342;2023-04-25T02:01:08;7.00;99.90
21744;DHT22;11034;48.556;9.342;2023-04-25T02:03:36;6.90;99.90
21744;DHT22;11034;48.556;9.342;2023-04-25T02:06:05;6.90;99.90
21744;DHT22;11034;48.556;9.342;2023-04-25T02:08:33;6.90;99.90
21744;DHT22;11034;48.556;9.342;2023-04-25T02:11:01;7.00;99.90
21744;DHT22;11034;48.556;9.342;2023-04-25T02:13:31;7.10;99.90
21744;DHT22;11034;48.556;9.342;2023-04-25T02:15:59;7.10;99.90
21744;DHT22;11034;48.556;9.342;2023-04-25T02:18:27;7.10;99.90
21744;DHT22;11034;48.556;9.342;2023-04-25T02:20:55;7.10;99.90
21744;DHT22;11034;48.556;9.342;2023-04-25T02:23:23;7.10;99.90
21744;DHT22;11034;48.556;9.342;2023-04-25T02:25:52;7.10;99.90
21744;DHT22;11034;48.556;9.342;2023-04-25T02:28:21;7.10;99.90
21744;DHT22;11034;48.556;9.342;2023-04-25T02:30:51;7.00;99.90
21744;DHT22;11034;48.556;9.342;2023-04-25T02:33:19;6.90;99.90
21744;DHT22;11034;48.556;9.342;2023-04-25T02:35:47;6.90;99.90
21744;DHT22;11034;48.556;9.342;2023-04-25T02:38:15;6.80;99.90
21744;DHT22;11034;48.556;9.342;2023-04-25T02:40:43;6.70;99.90
21744;DHT22;11034;48.556;9.342;2023-04-25T02:43:11;6.70;99.90
21744;DHT22;11034;48.556;9.342;2023-04-25T02:45:39;6.60;99.90
21744;DHT22;11034;48.556;9.342;2023-04-25T02:48:08;6.60;99.90
21744;DHT22;11034;48.556;9.342;2023-04-25T02:50:36;6.60;99.90
21744;DHT22;11034;48.556;9.342;2023-04-25T02:53:04;6.60;99.90
21744;DHT22;11034;48.556;9.342;2023-04-25T02:55:32;6.50;99.90
21744;DHT22;11034;48.556;9.342;2023-04-25T02:58:00;6.60;99.90
21744;DHT22;11034;48.556;9.342;2023-04-25T03:00:28;6.60;99.90
21744;DHT22;11034;48.556;9.342;2023-04-25T03:02:56;6.50;99.90
21744;DHT22;11034;48.556;9.342;2023-04-25T03:05:26;6.50;99.90
21744;DHT22;11034;48.556;9.342;2023-04-25T03:07:54;6.50;99.90
21744;DHT22;11034;48.556;9.342;2023-04-25T03:10:22;6.50;99.90
21744;DHT22;11034;48.556;9.342;2023-04-25T03:12:50;6.50;99.90
21744;DHT22;11034;48.556;9.342;2023-04-25T03:15:18;6.50;99.90
21744;DHT22;11034;48.556;9.342;2023-04-25T03:17:46;6.50;99.90
21744;DHT22;11034;48.556;9.342;2023-04-25T03:20:14;6.50;99.90
21744;DHT22;11034;48.556;9.342;2023-04-25T03:22:44;6.50;99.90
21744;DHT22;11034;48.556;9.342;2023-04-25T03:25:12;6.60;99.90
21744;DHT22;11034;48.556;9.342;2023-04-25T03:27:40;6.60;99.90
21744;DHT22;11034;48.556;9.342;2023-04-25T03:30:08;6.60;99.90
21744;DHT22;11034;48.556;9.342;2023-04-25T03:32:36;6.50;99.90
21744;DHT22;11034;48.556;9.342;2023-04-25T03:35:05;6.50;99.90
21744;DHT22;11034;48.556;9.342;2023-04-25T03:37:33;6.60;99.90
21744;DHT22;11034;48.556;9.342;2023-04-25T03:40:02;6.60;99.90
21744;DHT22;11034;48.556;9.342;2023-04-25T03:42:30;6.60;99.90
21744;DHT22;11034;48.556;9.342;2023-04-25T03:44:58;6.60;99.90
21744;DHT22;11034;48.556;9.342;2023-04-25T03:47:26;6.70;99.90
21744;DHT22;11034;48.556;9.342;2023-04-25T03:49:54;6.70;99.90
21744;DHT22;11034;48.556;9.342;2023-04-25T03:52:22;6.70;99.90
21744;DHT22;11034;48.556;9.342;2023-04-25T03:54:50;6.70;99.90
21744;DHT22;11034;48.556;9.342;2023-04-25T03:57:19;6.70;99.90
21744;DHT22;11034;48.556;9.342;2023-04-25T03:59:47;6.70;99.90
21744;DHT22;11034;48.556;9.342;2023-04-25T04:02:15;6.60;99.90
21744;DHT22;11034;48.556;9.342;2023-04-25T04:04:44;6.60;99.90
21744;DHT22;11034;48.556;9.342;2023-04-25T04:07:12;6.70;99.90
21744;DHT22;11034;48.556;9.342;2023-04-25T04:09:40;6.60;99.90
21744;DHT22;11034;48.556;9.342;2023-04-25T04:12:08;6.50;99.90
21744;DHT22;11034;48.556;9.342;2023-04-25T04:14:38;6.40;99.90
21744;DHT22;11034;48.556;9.342;2023-04-25T04:17:06;6.40;99.90
21744;DHT22;11034;48.556;9.342;2023-04-25T04:19:34;6.40;99.90
21744;DHT22;11034;48.556;9.342;2023-04-25T04:22:02;6.40;99.90
21744;DHT22;11034;48.556;9.342;2023-04-25T04:24:30;6.30;99.90
21744;DHT22;11034;48.556;9.342;2023-04-25T04:26:59;6.30;99.90
21744;DHT22;11034;48.556;9.342;2023-04-25T04:29:27;6.40;99.90
21744;DHT22;11034;48.556;9.342;2023-04-25T04:31:56;6.40;99.90
21744;DHT22;11034;48.556;9.342;2023-04-25T04:34:24;6.50;99.90
21744;DHT22;11034;48.556;9.342;2023-04-25T04:36:53;6.50;99.90
21744;DHT22;11034;48.556;9.342;2023-04-25T04:39:21;6.50;99.90
21744;DHT22;11034;48.556;9.342;2023-04-25T04:41:49;6.50;99.90
21744;DHT22;11034;48.556;9.342;2023-04-25T04:44:18;6.60;99.90
21744;DHT22;11034;48.556;9.342;2023-04-25T04:46:46;6.70;99.90
21744;DHT22;11034;48.556;9.342;2023-04-25T04:49:16;6.80;99.90
21744;DHT22;11034;48.556;9.342;2023-04-25T04:51:44;7.00;99.90
21744;DHT22;11034;48.556;9.342;2023-04-25T04:54:13;7.00;99.90
21744;DHT22;11034;48.556;9.342;2023-04-25T04:56:41;7.10;99.90
21744;DHT22;11034;48.556;9.342;2023-04-25T04:59:09;7.10;99.90
21744;DHT22;11034;48.556;9.342;2023-04-25T05:01:37;7.20;99.90
21744;DHT22;11034;48.556;9.342;2023-04-25T05:04:05;7.40;99.90
21744;DHT22;11034;48.556;9.342;2023-04-25T05:06:35;7.50;99.90
21744;DHT22;11034;48.556;9.342;2023-04-25T05:09:03;7.70;99.90
21744;DHT22;11034;48.556;9.342;2023-04-25T05:11:31;8.00;99.90
21744;DHT22;11034;48.556;9.342;2023-04-25T05:13:59;8.30;99.90
21744;DHT22;11034;48.556;9.342;2023-04-25T05:16:28;8.40;99.90
21744;DHT22;11034;48.556;9.342;2023-04-25T05:18:56;8.30;99.90
21744;DHT22;11034;48.556;9.342;2023-04-25T05:21:24;8.20;99.90
21744;DHT22;11034;48.556;9.342;2023-04-25T05:23:55;8.10;99.90
21744;DHT22;11034;48.556;9.342;2023-04-25T05:26:23;8.00;99.90
21744;DHT22;11034;48.556;9.342;2023-04-25T05:28:51;8.00;99.90
21744;DHT22;11034;48.556;9.342;2023-04-25T05:31:19;7.90;99.90
21744;DHT22;11034;48.556;9.342;2023-04-25T05:33:47;7.70;99.90
21744;DHT22;11034;48.556;9.342;2023-04-25T05:36:16;7.50;99.90
21744;DHT22;11034;48.556;9.342;2023-04-25T05:38:44;7.40;99.90
21744;DHT22;11034;48.556;9.342;2023-04-25T05:41:13;7.40;99.90
21744;DHT22;11034;48.556;9.342;2023-04-25T05:43:41;7.30;99.90
21744;DHT22;11034;48.556;9.342;2023-04-25T05:46:14;7.30;99.90
21744;DHT22;11034;48.556;9.342;2023-04-25T05:48:42;7.20;99.90
21744;DHT22;11034;48.556;9.342;2023-04-25T05:51:10;7.20;99.90
21744;DHT22;11034;48.556;9.342;2023-04-25T05:53:38;7.20;99.90
21744;DHT22;11034;48.556;9.342;2023-04-25T05:56:06;7.10;99.90
21744;DHT22;11034;48.556;9.342;2023-04-25T05:58:36;7.20;99.90
21744;DHT22;11034;48.556;9.342;2023-04-25T06:01:04;7.30;99.90
21744;DHT22;11034;48.556;9.342;2023-04-25T06:03:32;7.50;99.90
21744;DHT22;11034;48.556;9.342;2023-04-25T06:06:00;7.60;99.90
21744;DHT22;11034;48.556;9.342;2023-04-25T06:08:29;7.60;99.90
21744;DHT22;11034;48.556;9.342;2023-04-25T06:10:57;7.70;99.90
21744;DHT22;11034;48.556;9.342;2023-04-25T06:13:25;7.80;99.90
21744;DHT22;11034;48.556;9.342;2023-04-25T06:15:54;7.90;99.90
21744;DHT22;11034;48.556;9.342;2023-04-25T06:18:22;8.10;99.90
21744;DHT22;11034;48.556;9.342;2023-04-25T06:20:50;8.20;99.90
21744;DHT22;11034;48.556;9.342;2023-04-25T06:23:18;8.60;99.90
21744;DHT22;11034;48.556;9.342;2023-04-25T06:25:46;8.80;99.90
21744;DHT22;11034;48.556;9.342;2023-04-25T06:28:14;9.10;99.90
21744;DHT22;11034;48.556;9.342;2023-04-25T06:30:42;9.30;99.90
21744;DHT22;11034;48.556;9.342;2023-04-25T06:33:11;9.70;99.90
21744;DHT22;11034;48.556;9.342;2023-04-25T06:35:40;9.90;99.90
21744;DHT22;11034;48.556;9.342;2023-04-25T06:38:07;9.80;99.90
21744;DHT22;11034;48.556;9.342;2023-04-25T06:40:36;9.60;99.90
21744;DHT22;11034;48.556;9.342;2023-04-25T06:43:04;9.40;99.90
21744;DHT22;11034;48.556;9.342;2023-04-25T06:45:32;9.40;99.90
21744;DHT22;11034;48.556;9.342;2023-04-25T06:48:00;9.20;99.90
21744;DHT22;11034;48.556;9.342;2023-04-25T06:50:30;9.00;99.90
21744;DHT22;11034;48.556;9.342;2023-04-25T06:52:58;9.10;99.90
21744;DHT22;11034;48.556;9.342;2023-04-25T06:55:28;9.00;99.90
21744;DHT22;11034;48.556;9.342;2023-04-25T06:57:56;9.10;99.90
21744;DHT22;11034;48.556;9.342;2023-04-25T07:00:24;9.00;99.90
21744;DHT22;11034;48.556;9.342;2023-04-25T07:02:52;8.90;99.90
21744;DHT22;11034;48.556;9.342;2023-04-25T07:05:21;8.80;99.90
21744;DHT22;11034;48.556;9.342;2023-04-25T07:07:50;8.80;99.90
21744;DHT22;11034;48.556;9.342;2023-04-25T07:10:18;8.70;99.90
21744;DHT22;11034;48.556;9.342;2023-04-25T07:12:48;8.70;99.90
21744;DHT22;11034;48.556;9.342;2023-04-25T07:15:16;8.70;99.90
21744;DHT22;11034;48.556;9.342;2023-04-25T07:17:44;8.70;99.90
21744;DHT22;11034;48.556;9.342;2023-04-25T07:20:12;8.70;99.90
21744;DHT22;11034;48.556;9.342;2023-04-25T07:22:40;8.40;99.90
21744;DHT22;11034;48.556;9.342;2023-04-25T07:25:10;8.30;99.90
21744;DHT22;11034;48.556;9.342;2023-04-25T07:27:38;8.20;99.90
21744;DHT22;11034;48.556;9.342;2023-04-25T07:30:07;8.30;99.90
21744;DHT22;11034;48.556;9.342;2023-04-25T07:32:35;8.20;99.90
21744;DHT22;11034;48.556;9.342;2023-04-25T07:35:04;8.20;99.90
21744;DHT22;11034;48.556;9.342;2023-04-25T07:37:33;8.20;99.90
21744;DHT22;11034;48.556;9.342;2023-04-25T07:40:01;8.20;99.90
21744;DHT22;11034;48.556;9.342;2023-04-25T07:42:32;8.10;99.90
21744;DHT22;11034;48.556;9.342;2023-04-25T07:45:00;8.00;99.90
21744;DHT22;11034;48.556;9.342;2023-04-25T07:47:29;7.90;99.90
21744;DHT22;11034;48.556;9.342;2023-04-25T07:49:57;7.80;99.90
21744;DHT22;11034;48.556;9.342;2023-04-25T07:52:25;7.80;99.90
21744;DHT22;11034;48.556;9.342;2023-04-25T07:54:53;7.70;99.90
21744;DHT22;11034;48.556;9.342;2023-04-25T07:57:21;7.60;99.90
21744;DHT22;11034;48.556;9.342;2023-04-25T07:59:52;7.40;99.90
21744;DHT22;11034;48.556;9.342;2023-04-25T08:02:20;7.30;99.90
21744;DHT22;11034;48.556;9.342;2023-04-25T08:04:48;7.30;99.90
21744;DHT22;11034;48.556;9.342;2023-04-25T08:07:16;7.30;99.90
21744;DHT22;11034;48.556;9.342;2023-04-25T08:09:44;7.30;99.90
21744;DHT22;11034;48.556;9.342;2023-04-25T08:12:12;7.30;99.90
21744;DHT22;11034;48.556;9.342;2023-04-25T08:14:40;7.30;99.90
21744;DHT22;11034;48.556;9.342;2023-04-25T08:17:10;7.20;99.90
21744;DHT22;11034;48.556;9.342;2023-04-25T08:19:38;7.20;99.90
21744;DHT22;11034;48.556;9.342;2023-04-25T08:22:06;7.10;99.90
21744;DHT22;11034;48.556;9.342;2023-04-25T08:24:34;7.00;99.90
21744;DHT22;11034;48.556;9.342;2023-04-25T08:27:05;7.00;99.90
21744;DHT22;11034;48.556;9.342;2023-04-25T08:29:34;6.90;99.90
21744;DHT22;11034;48.556;9.342;2023-04-25T08:32:02;7.00;99.90
21744;DHT22;11034;48.556;9.342;2023-04-25T08:34:31;6.90;99.90
21744;DHT22;11034;48.556;9.342;2023-04-25T08:36:59;6.80;99.90
21744;DHT22;11034;48.556;9.342;2023-04-25T08:39:27;6.80;99.90
21744;DHT22;11034;48.556;9.342;2023-04-25T08:41:56;6.70;99.90
21744;DHT22;11034;48.556;9.342;2023-04-25T08:44:24;6.70;99.90
21744;DHT22;11034;48.556;9.342;2023-04-25T08:46:53;6.60;99.90
21744;DHT22;11034;48.556;9.342;2023-04-25T08:49:22;6.60;99.90
21744;DHT22;11034;48.556;9.342;2023-04-25T08:51:52;6.60;99.90
21744;DHT22;11034;48.556;9.342;2023-04-25T08:54:21;6.50;99.90
21744;DHT22;11034;48.556;9.342;2023-04-25T08:57:02;6.50;99.90
21744;DHT22;11034;48.556;9.342;2023-04-25T08:59:32;6.50;99.90
21744;DHT22;11034;48.556;9.342;2023-04-25T09:02:03;6.40;99.90
21744;DHT22;11034;48.556;9.342;2023-04-25T09:04:31;6.50;99.90
21744;DHT22;11034;48.556;9.342;2023-04-25T09:07:01;6.50;99.90
21744;DHT22;11034;48.556;9.342;2023-04-25T09:09:29;6.50;99.90
21744;DHT22;11034;48.556;9.342;2023-04-25T09:11:57;6.50;99.90
21744;DHT22;11034;48.556;9.342;2023-04-25T09:14:26;6.50;99.90
21744;DHT22;11034;48.556;9.342;2023-04-25T09:17:02;6.40;99.90
21744;DHT22;11034;48.556;9.342;2023-04-25T09:19:32;6.50;99.90
21744;DHT22;11034;48.556;9.342;2023-04-25T09:22:08;6.50;99.90
21744;DHT22;11034;48.556;9.342;2023-04-25T09:24:38;6.40;99.90
21744;DHT22;11034;48.556;9.342;2023-04-25T09:27:06;6.40;99.90
21744;DHT22;11034;48.556;9.342;2023-04-25T09:29:36;6.40;99.90
21744;DHT22;11034;48.556;9.342;2023-04-25T09:32:18;6.40;99.90
21744;DHT22;11034;48.556;9.342;2023-04-25T09:34:48;6.40;99.90
21744;DHT22;11034;48.556;9.342;2023-04-25T09:37:19;6.50;99.90
21744;DHT22;11034;48.556;9.342;2023-04-25T09:39:49;6.50;99.90
21744;DHT22;11034;48.556;9.342;2023-04-25T09:42:17;6.70;99.90
21744;DHT22;11034;48.556;9.342;2023-04-25T09:44:46;6.70;99.90
21744;DHT22;11034;48.556;9.342;2023-04-25T09:47:15;6.50;99.90
21744;DHT22;11034;48.556;9.342;2023-04-25T09:49:44;6.40;99.90
21744;DHT22;11034;48.556;9.342;2023-04-25T09:52:18;6.40;99.90
21744;DHT22;11034;48.556;9.342;2023-04-25T09:54:50;6.30;99.90
21744;DHT22;11034;48.556;9.342;2023-04-25T09:57:20;6.30;99.90
21744;DHT22;11034;48.556;9.342;2023-04-25T09:59:50;6.50;99.90
21744;DHT22;11034;48.556;9.342;2023-04-25T10:02:19;6.60;99.90
21744;DHT22;11034;48.556;9.342;2023-04-25T10:04:50;6.50;99.90
21744;DHT22;11034;48.556;9.342;2023-04-25T10:07:22;6.30;99.90
21744;DHT22;11034;48.556;9.342;2023-04-25T10:09:57;6.30;99.90
21744;DHT22;11034;48.556;9.342;2023-04-25T10:12:27;6.50;99.90
21744;DHT22;11034;48.556;9.342;2023-04-25T10:14:55;6.50;99.90
21744;DHT22;11034;48.556;9.342;2023-04-25T10:17:23;6.50;99.90
21744;DHT22;11034;48.556;9.342;2023-04-25T10:19:52;6.40;99.90
21744;DHT22;11034;48.556;9.342;2023-04-25T10:22:29;6.40;99.90
21744;DHT22;11034;48.556;9.342;2023-04-25T10:24:57;6.30;99.90
21744;DHT22;11034;48.556;9.342;2023-04-25T10:27:27;6.40;99.90
21744;DHT22;11034;48.556;9.342;2023-04-25T10:30:03;6.40;99.90
21744;DHT22;11034;48.556;9.342;2023-04-25T10:32:32;6.30;99.90
21744;DHT22;11034;48.556;9.342;2023-04-25T10:35:10;6.30;99.90
21744;DHT22;11034;48.556;9.342;2023-04-25T10:37:56;6.10;99.90
21744;DHT22;11034;48.556;9.342;2023-04-25T10:43:36;5.90;99.90
21744;DHT22;11034;48.556;9.342;2023-04-25T10:46:16;5.90;99.90
21744;DHT22;11034;48.556;9.342;2023-04-25T10:48:47;6.00;99.90
21744;DHT22;11034;48.556;9.342;2023-04-25T10:51:17;6.10;99.90
21744;DHT22;11034;48.556;9.342;2023-04-25T10:53:56;6.20;99.90
21744;DHT22;11034;48.556;9.342;2023-04-25T10:56:26;6.10;99.90
21744;DHT22;11034;48.556;9.342;2023-04-25T10:59:06;6.10;99.90
21744;DHT22;11034;48.556;9.342;2023-04-25T11:01:39;6.30;99.90
21744;DHT22;11034;48.556;9.342;2023-04-25T11:04:19;6.10;99.90
21744;DHT22;11034;48.556;9.342;2023-04-25T11:06:58;6.00;99.90
21744;DHT22;11034;48.556;9.342;2023-04-25T11:09:35;5.90;99.90
21744;DHT22;11034;48.556;9.342;2023-04-25T11:12:04;5.80;99.90
21744;DHT22;11034;48.556;9.342;2023-04-25T11:14:32;5.80;99.90
21744;DHT22;11034;48.556;9.342;2023-04-25T11:17:01;5.90;99.90
21744;DHT22;11034;48.556;9.342;2023-04-25T11:19:29;5.80;99.90
21744;DHT22;11034;48.556;9.342;2023-04-25T11:21:58;6.00;99.90
21744;DHT22;11034;48.556;9.342;2023-04-25T11:24:27;6.10;99.90
21744;DHT22;11034;48.556;9.342;2023-04-25T11:26:58;6.20;99.90
21744;DHT22;11034;48.556;9.342;2023-04-25T11:29:29;6.10;99.90
21744;DHT22;11034;48.556;9.342;2023-04-25T11:31:58;6.00;99.90
21744;DHT22;11034;48.556;9.342;2023-04-25T11:34:28;6.00;99.90
21744;DHT22;11034;48.556;9.342;2023-04-25T11:36:57;6.00;99.90
21744;DHT22;11034;48.556;9.342;2023-04-25T11:39:27;6.10;99.90
21744;DHT22;11034;48.556;9.342;2023-04-25T11:41:55;6.10;99.90
21744;DHT22;11034;48.556;9.342;2023-04-25T11:44:25;6.00;99.90
21744;DHT22;11034;48.556;9.342;2023-04-25T11:46:53;6.30;99.90
21744;DHT22;11034;48.556;9.342;2023-04-25T11:49:21;6.30;99.90
21744;DHT22;11034;48.556;9.342;2023-04-25T11:51:51;6.40;99.90
21744;DHT22;11034;48.556;9.342;2023-04-25T11:54:19;6.40;99.90
21744;DHT22;11034;48.556;9.342;2023-04-25T11:56:48;6.50;99.90
21744;DHT22;11034;48.556;9.342;2023-04-25T11:59:16;6.70;99.90
21744;DHT22;11034;48.556;9.342;2023-04-25T12:01:49;7.10;99.90
21744;DHT22;11034;48.556;9.342;2023-04-25T12:04:19;7.30;99.90
21744;DHT22;11034;48.556;9.342;2023-04-25T12:06:49;7.30;99.90
21744;DHT22;11034;48.556;9.342;2023-04-25T12:09:19;7.30;99.90
21744;DHT22;11034;48.556;9.342;2023-04-25T12:11:57;6.90;99.90
21744;DHT22;11034;48.556;9.342;2023-04-25T12:14:27;6.90;99.90
21744;DHT22;11034;48.556;9.342;2023-04-25T12:16:57;7.00;99.90
21744;DHT22;11034;48.556;9.342;2023-04-25T12:19:26;6.90;99.90
21744;DHT22;11034;48.556;9.342;2023-04-25T12:22:00;7.00;99.90
21744;DHT22;11034;48.556;9.342;2023-04-25T12:24:32;6.90;99.90
21744;DHT22;11034;48.556;9.342;2023-04-25T12:27:05;6.90;99.90
21744;DHT22;11034;48.556;9.342;2023-04-25T12:29:35;6.70;99.90
21744;DHT22;11034;48.556;9.342;2023-04-25T12:32:17;6.70;99.90
21744;DHT22;11034;48.556;9.342;2023-04-25T12:34:45;6.80;99.90
21744;DHT22;11034;48.556;9.342;2023-04-25T12:37:14;6.70;99.90
21744;DHT22;11034;48.556;9.342;2023-04-25T12:39:42;6.80;99.90
21744;DHT22;11034;48.556;9.342;2023-04-25T12:42:10;7.10;99.90
21744;DHT22;11034;48.556;9.342;2023-04-25T12:44:39;7.30;99.90
21744;DHT22;11034;48.556;9.342;2023-04-25T12:47:08;7.30;99.90
21744;DHT22;11034;48.556;9.342;2023-04-25T12:49:37;7.20;99.90
21744;DHT22;11034;48.556;9.342;2023-04-25T12:52:06;7.30;99.90
21744;DHT22;11034;48.556;9.342;2023-04-25T12:54:34;7.40;99.90
21744;DHT22;11034;48.556;9.342;2023-04-25T12:57:02;7.30;99.90
21744;DHT22;11034;48.556;9.342;2023-04-25T12:59:30;7.40;99.90
21744;DHT22;11034;48.556;9.342;2023-04-25T13:01:58;7.60;99.90
21744;DHT22;11034;48.556;9.342;2023-04-25T13:04:26;7.50;99.90
21744;DHT22;11034;48.556;9.342;2023-04-25T13:06:56;7.30;99.90
21744;DHT22;11034;48.556;9.342;2023-04-25T13:09:24;7.20;99.90
21744;DHT22;11034;48.556;9.342;2023-04-25T13:11:52;7.20;99.90
21744;DHT22;11034;48.556;9.342;2023-04-25T13:14:24;7.20;99.90
21744;DHT22;11034;48.556;9.342;2023-04-25T13:16:52;7.40;99.90
21744;DHT22;11034;48.556;9.342;2023-04-25T13:19:21;7.60;99.90
21744;DHT22;11034;48.556;9.342;2023-04-25T13:21:49;7.90;99.90
21744;DHT22;11034;48.556;9.342;2023-04-25T13:24:18;8.20;99.90
21744;DHT22;11034;48.556;9.342;2023-04-25T13:26:47;8.50;99.90
21744;DHT22;11034;48.556;9.342;2023-04-25T13:29:15;8.50;99.90
21744;DHT22;11034;48.556;9.342;2023-04-25T13:31:43;8.80;99.90
21744;DHT22;11034;48.556;9.342;2023-04-25T13:34:11;8.90;99.90
21744;DHT22;11034;48.556;9.342;2023-04-25T13:36:39;9.10;99.90
21744;DHT22;11034;48.556;9.342;2023-04-25T13:39:07;9.10;99.90
21744;DHT22;11034;48.556;9.342;2023-04-25T13:41:37;9.50;99.90
21744;DHT22;11034;48.556;9.342;2023-04-25T13:44:05;9.40;99.90
21744;DHT22;11034;48.556;9.342;2023-04-25T13:46:33;9.40;99.90
21744;DHT22;11034;48.556;9.342;2023-04-25T13:49:13;9.20;99.90
21744;DHT22;11034;48.556;9.342;2023-04-25T13:51:41;9.50;99.90
21744;DHT22;11034;48.556;9.342;2023-04-25T13:54:09;10.00;99.90
21744;DHT22;11034;48.556;9.342;2023-04-25T13:56:39;9.90;99.90
21744;DHT22;11034;48.556;9.342;2023-04-25T13:59:09;9.90;99.90
21744;DHT22;11034;48.556;9.342;2023-04-25T14:01:37;9.90;99.90
21744;DHT22;11034;48.556;9.342;2023-04-25T14:04:05;9.90;99.90
21744;DHT22;11034;48.556;9.342;2023-04-25T14:06:33;10.20;99.90
21744;DHT22;11034;48.556;9.342;2023-04-25T14:09:02;10.10;99.90
21744;DHT22;11034;48.556;9.342;2023-04-25T14:11:31;10.30;99.90
21744;DHT22;11034;48.556;9.342;2023-04-25T14:14:00;10.40;99.90
21744;DHT22;11034;48.556;9.342;2023-04-25T14:16:29;10.50;99.90
21744;DHT22;11034;48.556;9.342;2023-04-25T14:18:58;10.40;99.90
21744;DHT22;11034;48.556;9.342;2023-04-25T14:21:27;10.40;99.90
21744;DHT22;11034;48.556;9.342;2023-04-25T14:23:55;10.00;99.90
21744;DHT22;11034;48.556;9.342;2023-04-25T14:26:23;10.10;99.90
21744;DHT22;11034;48.556;9.342;2023-04-25T14:28:51;10.40;99.90
21744;DHT22;11034;48.556;9.342;2023-04-25T14:31:21;10.60;99.90
21744;DHT22;11034;48.556;9.342;2023-04-25T14:33:49;10.80;99.90
21744;DHT22;11034;48.556;9.342;2023-04-25T14:36:18;10.90;99.90
21744;DHT22;11034;48.556;9.342;2023-04-25T14:38:46;10.70;99.90
21744;DHT22;11034;48.556;9.342;2023-04-25T14:41:14;10.40;99.90
21744;DHT22;11034;48.556;9.342;2023-04-25T14:43:42;10.00;99.90
21744;DHT22;11034;48.556;9.342;2023-04-25T14:46:11;9.90;99.90
21744;DHT22;11034;48.556;9.342;2023-04-25T14:48:41;10.20;99.90
21744;DHT22;11034;48.556;9.342;2023-04-25T14:51:09;10.40;99.90
21744;DHT22;11034;48.556;9.342;2023-04-25T14:53:38;10.50;99.90
21744;DHT22;11034;48.556;9.342;2023-04-25T14:56:06;10.60;99.90
21744;DHT22;11034;48.556;9.342;2023-04-25T14:58:35;10.70;99.90
21744;DHT22;11034;48.556;9.342;2023-04-25T15:01:04;10.90;99.90
21744;DHT22;11034;48.556;9.342;2023-04-25T15:03:33;10.70;99.90
21744;DHT22;11034;48.556;9.342;2023-04-25T15:06:03;10.80;99.90
21744;DHT22;11034;48.556;9.342;2023-04-25T15:08:32;10.70;99.90
21744;DHT22;11034;48.556;9.342;2023-04-25T15:11:00;10.50;99.90
21744;DHT22;11034;48.556;9.342;2023-04-25T15:13:29;10.90;99.90
21744;DHT22;11034;48.556;9.342;2023-04-25T15:15:57;10.80;99.90
21744;DHT22;11034;48.556;9.342;2023-04-25T15:18:25;10.90;99.90
21744;DHT22;11034;48.556;9.342;2023-04-25T15:20:53;10.90;99.90
21744;DHT22;11034;48.556;9.342;2023-04-25T15:23:23;10.60;99.90
21744;DHT22;11034;48.556;9.342;2023-04-25T15:25:53;10.50;99.90
21744;DHT22;11034;48.556;9.342;2023-04-25T15:28:21;10.70;99.90
21744;DHT22;11034;48.556;9.342;2023-04-25T15:30:49;10.60;99.90
21744;DHT22;11034;48.556;9.342;2023-04-25T15:33:17;10.60;99.90
21744;DHT22;11034;48.556;9.342;2023-04-25T15:35:45;10.40;99.90
21744;DHT22;11034;48.556;9.342;2023-04-25T15:38:13;10.20;99.90
21744;DHT22;11034;48.556;9.342;2023-04-25T15:40:42;10.20;99.90
21744;DHT22;11034;48.556;9.342;2023-04-25T15:43:10;10.10;99.90
21744;DHT22;11034;48.556;9.342;2023-04-25T15:45:42;10.20;99.90
21744;DHT22;11034;48.556;9.342;2023-04-25T15:48:11;10.20;99.90
21744;DHT22;11034;48.556;9.342;2023-04-25T15:50:39;10.10;99.90
21744;DHT22;11034;48.556;9.342;2023-04-25T15:53:08;10.10;99.90
21744;DHT22;11034;48.556;9.342;2023-04-25T15:55:36;10.30;99.90
21744;DHT22;11034;48.556;9.342;2023-04-25T15:58:06;10.50;99.90
21744;DHT22;11034;48.556;9.342;2023-04-25T16:00:37;10.70;99.90